ロサンゼルス の空港の天気 - METARとTAF

ロサンゼルス国際空港 ( KLAX / LAX ) - アメリカ カリフォルニア州ロサンゼルス
飛行場実況気象(Metar)
観測時間10/23 19:53 PDT (10/24 02:53 UTC)
風向・風速西南西 3m/s
視程10km以上
天気現象
全天の4割程度の雲 雲底高度 340m
全天の4割程度の雲 雲底高度 610m
全天の8割程度の雲 雲底高度 1220m
気温16.7℃
湿度84%
気圧1011.9hPa
METARKLAX 240253Z 24005KT 10SM SCT011 SCT020 BKN040 17/14 A2989 RMK AO2 SLP119 T01670139 51005 $
過去の天気等 Google飛行場航空写真 Wunderground天気予報

過去48時間のMETAR

飛行場予報(TAF)
発表時間: 10/23 19:58 PDT (10/24 02:58 UTC)
予報対象時間: 23日20時 PDT ~ 24日23時 PDT
風向・風速西南西 3m/s
視程10km以上
全天の4割程度の雲 雲底高度 370m
全天の8割程度の雲 雲底高度 1220m
23日22時 PDT から
風向・風速不定 2m/s
視程10km以上
全天の8割程度の雲 雲底高度 460m
24日1時 PDT から
風向・風速不定 2m/s
視程10km以上
全天を覆う雲 雲底高度 760m
24日6時 PDT から
風向・風速東 3m/s
視程10km以上
全天の4割程度の雲 雲底高度 760m
全天を覆う雲 雲底高度 1070m
24日14時 PDT から
風向・風速西 5m/s
視程10km以上
全天の8割程度の雲 雲底高度 1520m
24日20時 PDT から
風向・風速西 4m/s
視程10km以上
全天の8割程度の雲 雲底高度 1070m
KLAX 240258Z 2403/2506 24006KT P6SM SCT012 BKN040
FM240500 VRB03KT P6SM BKN015
FM240800 VRB03KT P6SM OVC025
FM241300 09005KT P6SM SCT025 OVC035
FM242100 26010KT P6SM BKN050
FM250300 26008KT P6SM BKN035